Rechercher aéroport 
image banner adimage banner adimage banner ad
image banner ad

KCCR - Buchanan Field

Situé à Concord, United States

ICAO - CCR, IATA - CCR

Données fournies par Airmate  

Information générale

Coordonnées: N37°59'23" W122°3'25"
Élévation : 26 feet MSL.
Variation magnétique : 13° East
Voir autres Aéroports à California

Données opérationnelles

Special qualification required
Heure actuelle UTC:
Heure actuelle locale:
Météo
METAR: KCCR 251453Z 28008KT 10SM FEW015 16/12 A2995 RMK AO2 SLP128 T01610117 51008
Voir NOTAMs / SUP AIP / TFR affectant cet aéroport [VIEW]
Fréquences de communication: [VIEW]

Pistes:

Identifiant RWYQFULongueur (ft)Largeur (ft)SurfaceLDA (ft)
01R24°277075ASPH2770
19L204°277075ASPH2770
01L24°5001150OTHER4401
19R204°5001150OTHER4401
14R154°279875ASPH2799
32L334°279875ASPH2799
14L154°4602150OTHER3701
32R334°4602150OTHER4131

Coordonnées de l'aéroport

Adresse: Concord United States

Autres services d'aviation

Écoles de pilotage

Pacific States Aviation

Pacific States Aviation
info@psa.aero+1(925)685-4400

Concord Flying Club

Concord Flying Club
cfikevin@gmail.com+1(707)733-3221

Nri Flying Club, Inc.

Nri Flying Club, Inc.
nripresident@gmail.com+1(925)984-4733

Sterling Aviation Flight Training Center

Sterling Aviation Flight Training Center
ChrisH@Sterlingav.com+1(925)676-2100

Jato Aviation

Jato Aviation
ops@jatoaviation.com+1(650)654-5286

Vue satellite de KCCR